Flight Track Log - Related Links

Times and Time Zones

All times are in EDT time to prevent confusion due to time zone crossing. See the EJM616 flight status page for this flight to view local times or setup timezone preferences in your user account.

Time Position Orientation Groundspeed Altitude Reporting Facility
EDT Latitude Longitude Course Direction KTS MPH feet Rate Location/Type
Thu 11:27:01 PM 42.4667 -71.3167 236° Southwest 176 203 1,400  Level KA90
Thu 11:27:31 PM 42.4500 -71.3500 236° Southwest 183 211 2,000 1,467 Climbing KA90
Thu 11:28:31 PM 42.4000 -71.3000 144° Southeast 243 280 3,600 2,555 Climbing KA90
Thu 11:30:06 PM 42.3142 -71.1878 136° Southeast 299 344 8,600 2,748 Climbing Boston Center
Thu 11:31:06 PM 42.2758 -71.0989 120° Southeast 299 344 10,700 1,700 Climbing Boston Center
Thu 11:32:06 PM 42.3072 -70.9578 73° East 302 348 12,000 1,650 Climbing Boston Center
Thu 11:33:06 PM 42.3392 -70.8364 70° East 343 395 14,000 2,000 Climbing Boston Center
Thu 11:34:06 PM 42.3808 -70.6975 68° East 372 428 16,000 2,050 Climbing Boston Center
Thu 11:35:06 PM 42.4200 -70.5500 70° East 396 456 18,100 2,250 Climbing Boston Center
Thu 11:36:06 PM 42.4589 -70.3858 72° East 410 472 20,500 2,200 Climbing Boston Center
Thu 11:37:06 PM 42.5019 -70.2294 69° East 422 486 22,500 1,850 Climbing Boston Center
Thu 11:38:06 PM 42.5444 -70.0644 71° East 444 511 24,200 1,650 Climbing Boston Center
Thu 11:39:06 PM 42.5886 -69.8964 70° East 456 525 25,800 1,600 Climbing Boston Center
Thu 11:40:06 PM 42.6369 -69.7250 69° East 468 539 27,400 1,500 Climbing Boston Center
Thu 11:41:06 PM 42.6825 -69.5450 71° East 488 562 28,800 1,300 Climbing Boston Center
Thu 11:42:06 PM 42.7317 -69.3561 70° East 507 583 30,000 1,250 Climbing Boston Center
Thu 11:43:06 PM 42.7786 -69.1669 71° East 519 597 31,300 1,100 Climbing Boston Center
Thu 11:44:06 PM 42.8289 -68.9689 71° East 531 611 32,200 1,250 Climbing Boston Center
Thu 11:45:06 PM 42.8769 -68.7733 71° East 542 624 33,800 1,550 Climbing Boston Center
Thu 11:46:06 PM 42.9233 -68.6006 70° East 542 624 35,300 1,450 Climbing Boston Center
Thu 11:47:06 PM 42.9689 -68.4075 72° East 537 618 36,700 1,300 Climbing Boston Center
Thu 11:48:06 PM 43.0161 -68.2142 71° East 531 611 37,900 1,000 Climbing Boston Center
Thu 11:49:06 PM 43.0650 -68.0200 71° East 531 611 38,700 550 Climbing Boston Center
Thu 11:50:06 PM 43.1114 -67.8233 72° East 536 617 39,000 150 Climbing Boston Center
Thu 11:51:06 PM 43.1592 -67.6203 72° East 542 624 39,000  Level Boston Center
Thu 11:52:06 PM 43.2072 -67.4228 71° East 554 638 39,000  Level Boston Center
Thu 11:53:06 PM 43.2542 -67.2192 72° East 554 638 39,000  Level Boston Center
Thu 11:54:06 PM 43.2992 -67.0183 73° East 549 632 39,000  Level Boston Center
Thu 11:55:35 PM 43.3667 -66.7000 74° East 550 633 39,000  Level Moncton Center
Thu 11:56:35 PM 43.4000 -66.4833 78° East 550 633 39,000  Level Moncton Center
Thu 11:57:35 PM 43.4500 -66.2833 71° East 550 633 39,000  Level Moncton Center
Thu 11:58:35 PM 43.4833 -66.1000 76° East 550 633 39,000  Level Moncton Center
Thu 11:59:35 PM 43.5500 -65.9000 65° Northeast 550 633 39,000  Level Moncton Center
Fri 12:00:35 AM 43.5833 -65.6833 78° East 550 633 39,000  Level Moncton Center
Fri 12:01:35 AM 43.6333 -65.4833 71° East 550 633 39,000  Level Moncton Center
Fri 12:02:35 AM 43.6667 -65.2667 78° East 550 633 39,000  Level Moncton Center
Fri 12:03:35 AM 43.7167 -65.0833 69° East 550 633 39,000  Level Moncton Center
Fri 12:04:35 AM 43.7500 -64.8833 77° East 550 633 39,000  Level Moncton Center
Fri 12:05:35 AM 43.8000 -64.6667 72° East 550 633 39,000  Level Moncton Center
Fri 12:06:35 AM 43.8333 -64.4667 77° East 550 633 39,000  Level Moncton Center
Fri 12:07:35 AM 43.8833 -64.2833 69° East 550 633 39,000  Level Moncton Center
Fri 12:08:35 AM 43.9167 -64.0500 79° East 560 644 39,000  Level Moncton Center
Fri 12:09:35 AM 43.9667 -63.8667 69° East 560 644 39,000  Level Moncton Center
Fri 12:10:35 AM 44.0000 -63.6500 78° East 560 644 39,000  Level Moncton Center
Fri 12:11:35 AM 44.0500 -63.4500 71° East 560 644 39,000  Level Moncton Center
Fri 12:12:35 AM 44.0833 -63.2333 78° East 550 633 39,000  Level Moncton Center
Fri 12:13:35 AM 44.1333 -63.0167 72° East 550 633 39,000  Level Moncton Center
Fri 12:14:35 AM 44.1667 -62.8167 77° East 550 633 39,000  Level Moncton Center
Fri 12:15:35 AM 44.2000 -62.6000 78° East 560 644 39,000  Level Moncton Center
Fri 12:16:35 AM 44.2333 -62.3833 78° East 550 633 39,000  Level Moncton Center
Fri 12:17:35 AM 44.2833 -62.1833 71° East 550 633 39,000  Level Moncton Center
Fri 12:18:35 AM 44.3167 -61.9667 78° East 550 633 39,000  Level Moncton Center
Fri 12:19:35 AM 44.3500 -61.7833 76° East 540 621 39,000  Level Moncton Center
Fri 12:20:35 AM 44.3833 -61.5667 78° East 540 621 39,000  Level Moncton Center
Fri 12:21:35 AM 44.4333 -61.3833 69° East 540 621 39,000  Level Moncton Center
Fri 12:22:35 AM 44.4500 -61.1667 84° East 540 621 39,000  Level Moncton Center
Fri 12:23:35 AM 44.5000 -60.9500 72° East 540 621 39,000  Level Moncton Center
Fri 12:24:35 AM 44.5333 -60.7667 76° East 540 621 39,000  Level Moncton Center
Fri 12:25:35 AM 44.5667 -60.5167 79° East 540 621 39,000  Level Moncton Center
Fri 12:26:35 AM 44.6000 -60.3333 76° East 550 633 39,000  Level Moncton Center
Fri 12:27:35 AM 44.6333 -60.1167 78° East 550 633 39,000  Level Moncton Center
Fri 12:28:35 AM 44.6667 -59.9000 78° East 550 633 39,000  Level Moncton Center
Fri 12:29:35 AM 44.7000 -59.7167 76° East 550 633 39,000  Level Moncton Center
Fri 12:30:35 AM 44.7333 -59.5000 78° East 550 633 39,000  Level Moncton Center
Fri 12:31:35 AM 44.7667 -59.2833 78° East 550 633 39,000  Level Moncton Center
Fri 12:32:35 AM 44.8000 -59.0667 78° East 550 633 39,000  Level Moncton Center
Fri 12:33:35 AM 44.8333 -58.8833 76° East 550 633 39,000  Level Moncton Center
Fri 12:34:35 AM 44.8500 -58.6333 85° East 550 633 39,000  Level Moncton Center
Fri 12:35:35 AM 44.9000 -58.4500 69° East 560 644 39,000  Level Moncton Center
Fri 12:36:35 AM 44.9167 -58.2333 84° East 550 633 39,000  Level Moncton Center
Fri 12:37:35 AM 44.9500 -58.0167 78° East 550 633 39,000  Level Moncton Center
Fri 12:38:35 AM 45.0000 -57.8000 72° East 550 633 39,000  Level Moncton Center
Fri 12:39:35 AM 45.0167 -57.5833 84° East 550 633 39,000  Level Moncton Center
Fri 12:40:35 AM 45.0500 -57.3667 78° East 550 633 39,000  Level Moncton Center
Fri 12:41:35 AM 45.0667 -57.1667 83° East 550 633 39,000  Level Moncton Center
Fri 12:42:35 AM 45.1000 -56.9333 78° East 550 633 39,000 50 Level Moncton Center
Fri 12:43:35 AM 45.1500 -56.7333 70° East 550 633 39,100 400 Climbing Moncton Center
Fri 12:44:35 AM 45.1667 -56.5333 83° East 550 633 39,800 650 Climbing Moncton Center
Fri 12:45:35 AM 45.2000 -56.3167 78° East 550 633 40,400 550 Climbing Moncton Center
Fri 12:46:35 AM 45.2333 -56.1000 78° East 540 621 40,900 300 Climbing Moncton Center
Fri 12:47:35 AM 45.2667 -55.8833 78° East 540 621 41,000 50 Climbing Moncton Center
Fri 12:48:35 AM 45.3000 -55.6667 78° East 540 621 41,000  Level Moncton Center
Fri 12:49:35 AM 45.3167 -55.4667 83° East 540 621 41,000  Level Moncton Center
Fri 12:50:35 AM 45.3500 -55.2667 77° East 550 633 41,000  Level Moncton Center
Fri 12:51:35 AM 45.3833 -55.0500 78° East 550 633 41,000  Level Moncton Center
Fri 12:52:35 AM 45.4167 -54.8333 78° East 550 633 41,000  Level Moncton Center
Fri 12:53:35 AM 45.4500 -54.6000 78° East 550 633 41,000  Level Moncton Center
Fri 12:54:35 AM 45.4833 -54.4167 75° East 560 644 41,000  Level Moncton Center
Fri 12:55:35 AM 45.5000 -54.1667 84° East 560 644 41,000  Level Moncton Center
Fri 12:56:35 AM 45.5333 -53.9667 77° East 560 644 41,000  Level Moncton Center
Fri 12:57:35 AM 45.5500 -53.7500 84° East 570 656 41,000  Level Moncton Center
Fri 12:58:35 AM 45.6000 -53.5167 73° East 560 644 41,000  Level Moncton Center
Fri 12:59:35 AM 45.6000 -53.3000 90° East 570 656 41,000  Level Moncton Center
Fri 01:00:35 AM 45.6333 -53.0833 78° East 570 656 41,000  Level Moncton Center
Fri 01:01:35 AM 45.6667 -52.8500 78° East 570 656 41,000  Level Moncton Center
Fri 01:02:35 AM 45.6833 -52.6167 84° East 570 656 41,000  Level Moncton Center
Fri 01:03:35 AM 45.7167 -52.4167 77° East 580 667 41,000  Level Moncton Center
Fri 01:04:35 AM 45.7500 -52.1667 79° East 570 656 41,000  Level Moncton Center
Fri 01:05:35 AM 45.7667 -51.9500 84° East 580 667 41,000  Level Moncton Center
Fri 01:06:35 AM 45.8000 -51.7167 78° East 580 667 41,000  Level Moncton Center
Fri 01:07:35 AM 45.8167 -51.5000 84° East 580 667 41,000  Level Moncton Center
Fri 01:08:35 AM 45.8333 -51.2667 84° East 580 667 41,000  Level Moncton Center
Fri 01:09:35 AM 45.8833 -51.0167 74° East 580 667 41,000  Level Moncton Center
Fri 01:10:25 AM 45.9000 -50.8667 81° East 580 667 41,000  Level Gander Center
Fri 01:11:25 AM 45.9167 -50.6167 84° East 580 667 41,000  Level Gander Center
Fri 01:12:25 AM 45.9333 -50.4000 84° East 580 667 41,000  Level Gander Center
Fri 01:13:25 AM 45.9667 -50.1667 78° East 580 667 41,000  Level Gander Center
Fri 01:14:25 AM 45.9833 -49.9167 84° East 580 667 41,000  Level Gander Center
Fri 01:15:25 AM 46.0333 -49.7167 70° East 570 656 41,000  Level Gander Center
Fri 01:16:25 AM 46.1000 -49.4833 68° East 580 667 41,000  Level Gander Center
Fri 01:17:25 AM 46.1333 -49.2833 76° East 580 667 41,000  Level Gander Center
Fri 01:18:25 AM 46.2000 -49.0500 67° East 580 667 41,000  Level Gander Center
Fri 01:19:25 AM 46.2333 -48.8500 76° East 580 667 41,000  Level Gander Center
Fri 01:20:25 AM 46.3000 -48.6167 67° East 570 656 41,000  Level Gander Center
Fri 01:21:25 AM 46.3500 -48.4000 71° East 580 667 41,000  Level Gander Center
Fri 01:22:25 AM 46.4000 -48.2000 70° East 570 656 41,000  Level Gander Center
Fri 01:23:25 AM 46.4500 -47.9667 73° East 580 667 41,000  Level Gander Center
Fri 01:24:25 AM 46.5167 -47.7500 66° East 570 656 41,000  Level Gander Center
Fri 01:25:25 AM 46.5500 -47.5167 78° East 580 667 41,000  Level Gander Center
Fri 01:26:25 AM 46.6000 -47.3167 70° East 590 679 41,000  Level Gander Center
Fri 01:27:25 AM 46.6500 -47.0833 73° East 570 656 41,000  Level Gander Center
Fri 01:28:25 AM 46.7000 -46.8667 71° East 580 667 41,000  Level Gander Center
Fri 01:29:25 AM 46.7500 -46.6833 68° East 570 656 41,000  Level Gander Center
Fri 01:31:00 AM 46.8211 -46.3680 72° East  Level FlightAware Approximate
Fri 01:38:00 AM 47.1236 -44.9639 74° East  Level FlightAware Approximate
Fri 01:39:00 AM 47.1633 -44.7610 74° East  Level FlightAware Approximate
Fri 01:40:00 AM 47.2027 -44.5579 74° East  Level FlightAware Approximate
Fri 01:41:00 AM 47.2417 -44.3545 74° East  Level FlightAware Approximate
Fri 01:42:00 AM 47.2803 -44.1508 74° East  Level FlightAware Approximate
Fri 01:43:00 AM 47.3186 -43.9467 74° East  Level FlightAware Approximate
Fri 01:44:00 AM 47.3565 -43.7424 75° East  Level FlightAware Approximate
Fri 01:45:00 AM 47.3941 -43.5378 75° East  Level FlightAware Approximate
Fri 01:46:00 AM 47.4313 -43.3329 75° East  Level FlightAware Approximate
Fri 01:47:00 AM 47.4681 -43.1277 75° East  Level FlightAware Approximate
Fri 01:48:00 AM 47.5046 -42.9222 75° East  Level FlightAware Approximate
Fri 01:49:00 AM 47.5406 -42.7165 75° East  Level FlightAware Approximate
Fri 01:50:00 AM 47.5768 -42.5106 75° East  Level FlightAware Approximate
Fri 01:51:00 AM 47.6138 -42.3049 75° East  Level FlightAware Approximate
Fri 01:52:00 AM 47.6505 -42.0989 75° East  Level FlightAware Approximate
Fri 01:53:00 AM 47.6867 -41.8927 75° East  Level FlightAware Approximate
Fri 01:54:00 AM 47.7226 -41.6861 75° East  Level FlightAware Approximate
Fri 01:55:00 AM 47.7581 -41.4793 76° East  Level FlightAware Approximate
Fri 01:56:00 AM 47.7933 -41.2722 76° East  Level FlightAware Approximate
Fri 01:57:00 AM 47.8280 -41.0648 76° East  Level FlightAware Approximate
Fri 01:58:00 AM 47.8624 -40.8571 76° East  Level FlightAware Approximate
Fri 01:59:00 AM 47.8965 -40.6492 76° East  Level FlightAware Approximate
Fri 02:00:00 AM 47.9301 -40.4409 76° East  Level FlightAware Approximate
Fri 02:01:00 AM 47.9634 -40.2324 77° East  Level FlightAware Approximate
Fri 02:02:00 AM 47.9963 -40.0237 77° East  Level FlightAware Approximate
Fri 02:03:00 AM 48.0264 -39.8139 78° East  Level FlightAware Approximate
Fri 02:04:00 AM 48.0559 -39.6037 78° East  Level FlightAware Approximate
Fri 02:05:00 AM 48.0850 -39.3934 78° East  Level FlightAware Approximate
Fri 02:06:00 AM 48.1137 -39.1827 78° East  Level FlightAware Approximate
Fri 02:07:00 AM 48.1420 -38.9719 79° East  Level FlightAware Approximate
Fri 02:08:00 AM 48.1699 -38.7608 79° East  Level FlightAware Approximate
Fri 02:09:00 AM 48.1974 -38.5495 79° East  Level FlightAware Approximate
Fri 02:10:00 AM 48.2245 -38.3379 79° East  Level FlightAware Approximate
Fri 02:11:00 AM 48.2513 -38.1262 79° East  Level FlightAware Approximate
Fri 02:12:00 AM 48.2777 -37.9142 79° East  Level FlightAware Approximate
Fri 02:13:00 AM 48.3037 -37.7020 79° East  Level FlightAware Approximate
Fri 02:14:00 AM 48.3293 -37.4896 80° East  Level FlightAware Approximate
Fri 02:15:00 AM 48.3544 -37.2769 80° East  Level FlightAware Approximate
Fri 02:16:00 AM 48.3792 -37.0641 80° East  Level FlightAware Approximate
Fri 02:17:00 AM 48.4036 -36.8511 80° East  Level FlightAware Approximate
Fri 02:18:00 AM 48.4277 -36.6378 80° East  Level FlightAware Approximate
Fri 02:19:00 AM 48.4513 -36.4244 80° East  Level FlightAware Approximate
Fri 02:20:00 AM 48.4747 -36.2108 81° East  Level FlightAware Approximate
Fri 02:21:00 AM 48.4979 -35.9970 81° East  Level FlightAware Approximate
Fri 02:22:00 AM 48.5207 -35.7831 81° East  Level FlightAware Approximate
Fri 02:23:00 AM 48.5431 -35.5690 81° East  Level FlightAware Approximate
Fri 02:24:00 AM 48.5652 -35.3546 81° East  Level FlightAware Approximate
Fri 02:25:00 AM 48.5868 -35.1401 81° East  Level FlightAware Approximate
Fri 02:26:00 AM 48.6081 -34.9254 81° East  Level FlightAware Approximate
Fri 02:27:00 AM 48.6289 -34.7106 82° East  Level FlightAware Approximate
Fri 02:28:00 AM 48.6493 -34.4955 82° East  Level FlightAware Approximate
Fri 02:29:00 AM 48.6694 -34.2803 82° East  Level FlightAware Approximate
Fri 02:30:00 AM 48.6890 -34.0650 82° East  Level FlightAware Approximate
Fri 02:31:00 AM 48.7082 -33.8494 82° East  Level FlightAware Approximate
Fri 02:32:00 AM 48.7271 -33.6337 82° East  Level FlightAware Approximate
Fri 02:33:00 AM 48.7455 -33.4178 83° East  Level FlightAware Approximate
Fri 02:34:00 AM 48.7635 -33.2018 83° East  Level FlightAware Approximate
Fri 02:35:00 AM 48.7812 -32.9856 83° East  Level FlightAware Approximate
Fri 02:36:00 AM 48.7984 -32.7693 83° East  Level FlightAware Approximate
Fri 02:37:00 AM 48.8152 -32.5528 83° East  Level FlightAware Approximate
Fri 02:38:00 AM 48.8330 -32.3365 83° East  Level FlightAware Approximate
Fri 02:39:00 AM 48.8505 -32.1200 83° East  Level FlightAware Approximate
Fri 02:40:00 AM 48.8676 -31.9033 83° East  Level FlightAware Approximate
Fri 02:41:00 AM 48.8843 -31.6865 83° East  Level FlightAware Approximate
Fri 02:42:00 AM 48.9006 -31.4696 83° East  Level FlightAware Approximate
Fri 02:43:00 AM 48.9165 -31.2525 84° East  Level FlightAware Approximate
Fri 02:44:00 AM 48.9319 -31.0353 84° East  Level FlightAware Approximate
Fri 02:45:00 AM 48.9470 -30.8179 84° East  Level FlightAware Approximate
Fri 02:46:00 AM 48.9617 -30.6005 84° East  Level FlightAware Approximate
Fri 02:47:00 AM 48.9759 -30.3829 84° East  Level FlightAware Approximate
Fri 02:48:00 AM 48.9898 -30.1651 84° East  Level FlightAware Approximate
Fri 02:49:00 AM 48.9971 -29.9473 95° East  Level FlightAware Approximate
Fri 02:50:00 AM 48.9847 -29.7293 95° East  Level FlightAware Approximate
Fri 02:51:00 AM 48.9720 -29.5114 95° East  Level FlightAware Approximate
Fri 02:52:00 AM 48.9588 -29.2937 95° East  Level FlightAware Approximate
Fri 02:53:00 AM 48.9452 -29.0761 95° East  Level FlightAware Approximate
Fri 02:54:00 AM 48.9312 -28.8585 96° East  Level FlightAware Approximate
Fri 02:55:00 AM 48.9169 -28.6412 96° East  Level FlightAware Approximate
Fri 02:56:00 AM 48.9021 -28.4239 96° East  Level FlightAware Approximate
Fri 02:57:00 AM 48.8868 -28.2068 96° East  Level FlightAware Approximate
Fri 02:58:00 AM 48.8712 -27.9898 96° East  Level FlightAware Approximate
Fri 02:59:00 AM 48.8552 -27.7729 96° East  Level FlightAware Approximate
Fri 03:00:00 AM 48.8388 -27.5562 96° East  Level FlightAware Approximate
Fri 03:01:00 AM 48.8219 -27.3396 97° East  Level FlightAware Approximate
Fri 03:02:00 AM 48.8047 -27.1232 97° East  Level FlightAware Approximate
Fri 03:03:00 AM 48.7870 -26.9069 97° East  Level FlightAware Approximate
Fri 03:04:00 AM 48.7690 -26.6908 97° East  Level FlightAware Approximate
Fri 03:05:00 AM 48.7505 -26.4748 97° East  Level FlightAware Approximate
Fri 03:06:00 AM 48.7317 -26.2590 97° East  Level FlightAware Approximate
Fri 03:07:00 AM 48.7124 -26.0434 98° East  Level FlightAware Approximate
Fri 03:08:00 AM 48.6927 -25.8279 98° East  Level FlightAware Approximate
Fri 03:09:00 AM 48.6727 -25.6126 98° East  Level FlightAware Approximate
Fri 03:10:00 AM 48.6522 -25.3975 98° East  Level FlightAware Approximate
Fri 03:11:00 AM 48.6314 -25.1826 98° East  Level FlightAware Approximate
Fri 03:12:00 AM 48.6101 -24.9678 98° East  Level FlightAware Approximate
Fri 03:13:00 AM 48.5884 -24.7532 99° East  Level FlightAware Approximate
Fri 03:14:00 AM 48.5664 -24.5388 99° East  Level FlightAware Approximate
Fri 03:15:00 AM 48.5439 -24.3246 99° East  Level FlightAware Approximate
Fri 03:16:00 AM 48.5210 -24.1105 99° East  Level FlightAware Approximate
Fri 03:17:00 AM 48.4978 -23.8967 99° East  Level FlightAware Approximate
Fri 03:18:00 AM 48.4742 -23.6831 99° East  Level FlightAware Approximate
Fri 03:19:00 AM 48.4501 -23.4696 100° East  Level FlightAware Approximate
Fri 03:20:00 AM 48.4257 -23.2564 100° East  Level FlightAware Approximate
Fri 03:21:00 AM 48.4008 -23.0434 100° East  Level FlightAware Approximate
Fri 03:22:00 AM 48.3756 -22.8306 100° East  Level FlightAware Approximate
Fri 03:23:00 AM 48.3500 -22.6180 100° East  Level FlightAware Approximate
Fri 03:24:00 AM 48.3240 -22.4056 100° East  Level FlightAware Approximate
Fri 03:25:00 AM 48.2976 -22.1934 101° East  Level FlightAware Approximate
Fri 03:26:00 AM 48.2708 -21.9815 101° East  Level FlightAware Approximate
Fri 03:27:00 AM 48.2436 -21.7697 101° East  Level FlightAware Approximate
Fri 03:28:00 AM 48.2160 -21.5582 101° East  Level FlightAware Approximate
Fri 03:29:00 AM 48.1881 -21.3470 101° East  Level FlightAware Approximate
Fri 03:30:00 AM 48.1598 -21.1359 101° East  Level FlightAware Approximate
Fri 03:31:00 AM 48.1310 -20.9251 101° East  Level FlightAware Approximate
Fri 03:32:00 AM 48.1019 -20.7146 102° East  Level FlightAware Approximate
Fri 03:33:00 AM 48.0724 -20.5042 102° East  Level FlightAware Approximate
Fri 03:34:00 AM 48.0425 -20.2942 102° East  Level FlightAware Approximate
Fri 03:35:00 AM 48.0123 -20.0843 102° East  Level FlightAware Approximate
Fri 03:36:00 AM 47.9929 -19.8722 95° East  Level FlightAware Approximate
Fri 03:37:00 AM 47.9807 -19.6585 95° East  Level FlightAware Approximate
Fri 03:38:00 AM 47.9681 -19.4449 95° East  Level FlightAware Approximate
Fri 03:39:00 AM 47.9551 -19.2314 95° East  Level FlightAware Approximate
Fri 03:40:00 AM 47.9416 -19.0180 95° East  Level FlightAware Approximate
Fri 03:41:00 AM 47.9278 -18.8047 95° East  Level FlightAware Approximate
Fri 03:42:00 AM 47.9136 -18.5915 96° East  Level FlightAware Approximate
Fri 03:43:00 AM 47.8991 -18.3785 96° East  Level FlightAware Approximate
Fri 03:44:00 AM 47.8841 -18.1655 96° East  Level FlightAware Approximate
Fri 03:45:00 AM 47.8687 -17.9527 96° East  Level FlightAware Approximate
Fri 03:46:00 AM 47.8529 -17.7401 96° East  Level FlightAware Approximate
Fri 03:47:00 AM 47.8368 -17.5275 96° East  Level FlightAware Approximate
Fri 03:48:00 AM 47.8202 -17.3151 97° East  Level FlightAware Approximate
Fri 03:49:00 AM 47.8033 -17.1028 97° East  Level FlightAware Approximate
Fri 03:50:00 AM 47.7859 -16.8907 97° East  Level FlightAware Approximate
Fri 03:51:00 AM 47.7682 -16.6787 97° East  Level FlightAware Approximate
Fri 03:52:00 AM 47.7501 -16.4669 97° East  Level FlightAware Approximate
Fri 03:53:00 AM 47.7316 -16.2552 97° East  Level FlightAware Approximate
Fri 03:54:00 AM 47.7127 -16.0437 97° East  Level FlightAware Approximate
Fri 03:55:00 AM 47.6934 -15.8323 98° East  Level FlightAware Approximate
Fri 03:56:00 AM 47.6737 -15.6210 98° East  Level FlightAware Approximate
Fri 03:57:00 AM 47.6536 -15.4100 98° East  Level FlightAware Approximate
Fri 03:58:00 AM 47.6332 -15.1991 98° East  Level FlightAware Approximate
Fri 03:59:00 AM 47.6124 -14.9883 98° East  Level FlightAware Approximate
Fri 04:00:00 AM 47.5911 -14.7778 98° East  Level FlightAware Approximate
Fri 04:01:00 AM 47.5695 -14.5674 99° East  Level FlightAware Approximate
Fri 04:02:00 AM 47.5476 -14.3571 99° East  Level FlightAware Approximate
Fri 04:03:00 AM 47.5252 -14.1471 99° East  Level FlightAware Approximate
Fri 04:04:00 AM 47.5024 -13.9372 99° East  Level FlightAware Approximate
Fri 04:05:00 AM 47.4793 -13.7276 99° East  Level FlightAware Approximate
Fri 04:06:00 AM 47.4558 -13.5181 99° East  Level FlightAware Approximate
Fri 04:07:00 AM 47.4319 -13.3088 100° East  Level FlightAware Approximate
Fri 04:08:00 AM 47.4076 -13.0997 100° East  Level FlightAware Approximate
Fri 04:09:00 AM 47.3829 -12.8907 100° East  Level FlightAware Approximate
Fri 04:10:00 AM 47.3579 -12.6820 100° East  Level FlightAware Approximate
Fri 04:11:00 AM 47.3325 -12.4735 100° East  Level FlightAware Approximate
Fri 04:12:00 AM 47.3067 -12.2652 100° East  Level FlightAware Approximate
Fri 04:13:00 AM 47.2805 -12.0571 100° East  Level FlightAware Approximate
Fri 04:14:00 AM 47.2540 -11.8491 101° East  Level FlightAware Approximate
Fri 04:15:00 AM 47.2270 -11.6414 101° East  Level FlightAware Approximate
Fri 04:16:00 AM 47.1997 -11.4340 101° East  Level FlightAware Approximate
Fri 04:17:00 AM 47.1721 -11.2267 101° East  Level FlightAware Approximate
Fri 04:18:00 AM 47.1440 -11.0196 101° East  Level FlightAware Approximate
Fri 04:19:00 AM 47.1156 -10.8128 101° East  Level FlightAware Approximate
Fri 04:20:00 AM 47.0868 -10.6062 101° East  Level FlightAware Approximate
Fri 04:21:00 AM 47.0577 -10.3998 102° East  Level FlightAware Approximate
Fri 04:22:00 AM 47.0281 -10.1937 102° East  Level FlightAware Approximate
Fri 04:23:00 AM 47.0001 -9.9874 90° East  Level FlightAware Approximate
Fri 04:24:00 AM 47.0010 -9.7769 90° East  Level FlightAware Approximate
Fri 04:25:00 AM 47.0015 -9.5664 90° East  Level FlightAware Approximate
Fri 04:26:00 AM 47.0017 -9.3559 90° East  Level FlightAware Approximate
Fri 04:27:00 AM 47.0015 -9.1454 90° East  Level FlightAware Approximate
Fri 04:28:00 AM 47.0009 -8.9349 90° East  Level FlightAware Approximate
Fri 04:29:00 AM 47.0001 -8.7244 90° East  Level FlightAware Approximate
Fri 04:30:00 AM 47.0005 -8.5139 90° East  Level FlightAware Approximate
Fri 04:31:00 AM 47.0006 -8.3034 90° East  Level FlightAware Approximate
Fri 04:32:00 AM 47.0003 -8.0929 90° East  Level FlightAware Approximate
Fri 04:33:00 AM 46.9835 -7.8850 102° East  Level FlightAware Approximate
Fri 04:34:00 AM 46.9537 -7.6792 102° East  Level FlightAware Approximate
Fri 04:35:00 AM 46.9235 -7.4736 102° East  Level FlightAware Approximate
Fri 04:36:00 AM 46.8929 -7.2683 102° East  Level FlightAware Approximate
Fri 04:37:00 AM 46.8620 -7.0632 102° East  Level FlightAware Approximate
Fri 04:38:00 AM 46.8307 -6.8584 103° East  Level FlightAware Approximate
Fri 04:39:00 AM 46.7990 -6.6538 103° East  Level FlightAware Approximate
Fri 04:40:00 AM 46.7670 -6.4494 103° East  Level FlightAware Approximate
Fri 04:41:00 AM 46.7346 -6.2453 103° East  Level FlightAware Approximate
Fri 04:42:00 AM 46.7019 -6.0414 103° East  Level FlightAware Approximate
Fri 04:43:00 AM 46.6687 -5.8378 103° East  Level FlightAware Approximate
Fri 04:44:00 AM 46.6353 -5.6344 103° East  Level FlightAware Approximate
Fri 04:45:00 AM 46.6014 -5.4313 104° East  Level FlightAware Approximate
Fri 04:46:00 AM 46.5672 -5.2284 104° East  Level FlightAware Approximate
Fri 04:47:00 AM 46.5327 -5.0258 104° East  Level FlightAware Approximate
Fri 04:48:00 AM 46.4978 -4.8235 104° East  Level FlightAware Approximate
Fri 04:49:00 AM 46.4625 -4.6214 104° East  Level FlightAware Approximate
Fri 04:50:00 AM 46.4269 -4.4195 104° East  Level FlightAware Approximate
Fri 04:51:00 AM 46.3909 -4.2180 104° East  Level FlightAware Approximate
Fri 04:52:00 AM 46.3546 -4.0167 105° East  Level FlightAware Approximate
Fri 04:53:00 AM 46.3179 -3.8156 105° East  Level FlightAware Approximate
Fri 04:54:00 AM 46.2809 -3.6149 105° East  Level FlightAware Approximate
Fri 04:55:00 AM 46.2435 -3.4144 105° East  Level FlightAware Approximate
Fri 04:56:00 AM 46.2058 -3.2142 105° East  Level FlightAware Approximate
Fri 04:57:00 AM 46.1677 -3.0143 105° East  Level FlightAware Approximate
Fri 04:58:00 AM 46.1293 -2.8146 105° East  Level FlightAware Approximate
Fri 04:59:00 AM 46.0905 -2.6152 106° East  Level FlightAware Approximate
Fri 05:00:00 AM 46.0514 -2.4162 106° East  Level FlightAware Approximate
Fri 05:01:00 AM 46.0119 -2.2173 106° East  Level FlightAware Approximate
Fri 05:02:00 AM 45.9721 -2.0188 106° East  Level FlightAware Approximate
Fri 05:03:00 AM 45.9319 -1.8206 106° East  Level FlightAware Approximate
Fri 05:04:00 AM 45.8914 -1.6226 106° East  Level FlightAware Approximate
Fri 05:05:00 AM 45.8506 -1.4250 106° East  Level FlightAware Approximate
Fri 05:06:00 AM 45.8094 -1.2276 107° East  Level FlightAware Approximate
Fri 05:07:00 AM 45.7679 -1.0305 107° East  Level FlightAware Approximate
Fri 05:08:00 AM 45.7260 -0.8337 107° East  Level FlightAware Approximate
Fri 05:09:00 AM 45.6838 -0.6372 107° East  Level FlightAware Approximate
Fri 05:10:00 AM 45.6413 -0.4410 107° East  Level FlightAware Approximate
Fri 05:11:00 AM 45.5984 -0.2452 107° East  Level FlightAware Approximate
Fri 05:12:00 AM 45.5552 -0.0496 107° East  Level FlightAware Approximate
Fri 05:13:00 AM 45.5117 0.1457 108° East  Level FlightAware Approximate
Fri 05:14:00 AM 45.4678 0.3407 108° East  Level FlightAware Approximate
Fri 05:15:00 AM 45.4236 0.5354 108° East  Level FlightAware Approximate
Fri 05:16:00 AM 45.3791 0.7298 108° East  Level FlightAware Approximate
Fri 05:17:00 AM 45.3342 0.9238 108° East  Level FlightAware Approximate
Fri 05:18:00 AM 45.2891 1.1176 108° East  Level FlightAware Approximate
Fri 05:19:00 AM 45.2435 1.3111 108° East  Level FlightAware Approximate
Fri 05:20:00 AM 45.1977 1.5042 109° East  Level FlightAware Approximate
Fri 05:21:00 AM 45.1515 1.6970 109° East  Level FlightAware Approximate
Fri 05:22:00 AM 45.1050 1.8895 109° East  Level FlightAware Approximate
Fri 05:23:00 AM 45.0582 2.0817 109° East  Level FlightAware Approximate
Fri 05:24:00 AM 45.0110 2.2736 109° East  Level FlightAware Approximate
Fri 05:25:00 AM 44.9632 2.4650 109° East  Level FlightAware Approximate
Fri 05:26:00 AM 44.9152 2.6561 109° East  Level FlightAware Approximate
Fri 05:27:00 AM 44.8668 2.8469 110° East  Level FlightAware Approximate
Fri 05:28:00 AM 44.8181 3.0374 110° East  Level FlightAware Approximate
Fri 05:29:00 AM 44.7691 3.2275 110° East  Level FlightAware Approximate
Fri 05:30:00 AM 44.7198 3.4173 110° East  Level FlightAware Approximate
Fri 05:31:00 AM 44.6701 3.6068 110° East  Level FlightAware Approximate
Fri 05:32:00 AM 44.6202 3.7960 110° East  Level FlightAware Approximate
Fri 05:33:00 AM 44.5699 3.9848 110° East  Level FlightAware Approximate
Fri 05:34:00 AM 44.5194 4.1733 111° Southeast  Level FlightAware Approximate
Fri 05:35:00 AM 44.4629 4.3583 113° Southeast  Level FlightAware Approximate
Fri 05:36:00 AM 44.4181 4.5491 107° East  Level FlightAware Approximate
Fri 05:37:00 AM 44.3659 4.7357 115° Southeast  Level FlightAware Approximate
Fri 05:38:00 AM 44.3196 4.9253 107° East  Level FlightAware Approximate
Fri 05:39:00 AM 44.2605 5.1056 111° Southeast  Level FlightAware Approximate
Fri 05:40:00 AM 44.2087 5.2924 111° Southeast  Level FlightAware Approximate
Fri 05:41:00 AM 44.1577 5.4795 110° East  Level FlightAware Approximate
Fri 05:42:00 AM 44.1074 5.6669 110° East  Level FlightAware Approximate
Fri 05:43:00 AM 44.0568 5.8539 111° Southeast  Level FlightAware Approximate
Fri 05:44:00 AM 44.0059 6.0406 111° Southeast  Level FlightAware Approximate
Fri 05:45:00 AM 43.9535 6.2263 113° Southeast  Level FlightAware Approximate
Fri 05:46:00 AM 43.8970 6.4096 113° Southeast  Level FlightAware Approximate
Fri 05:47:00 AM 43.8400 6.5923 113° Southeast  Level FlightAware Approximate
Fri 05:48:00 AM 43.7834 6.7751 113° Southeast  Level FlightAware Approximate
Fri 05:49:00 AM 43.7255 6.9570 115° Southeast  Level FlightAware Approximate
Fri 05:50:00 AM 43.6704 7.1388 115° Southeast  Level FlightAware Approximate
Fri 05:51:00 AM 43.6500 7.2000 115° Southeast  Level FlightAware Approximate
Fri 05:52:00 AM 43.6607 7.2176 115° Southeast  Level Estimated
Fri 05:53:00 AM 43.6607 7.2176 115° Southeast  Level Estimated
Fri 05:54:00 AM 43.6607 7.2176 115° Southeast  Level Estimated
Fri 05:55:00 AM 43.6607 7.2176 115° Southeast  Level Estimated
Fri 05:56:00 AM 43.6607 7.2176 115° Southeast  Level Estimated
Fri 05:57:00 AM 43.6607 7.2176 115° Southeast  Level Estimated
Fri 05:58:00 AM 43.6607 7.2176 115° Southeast  Level Estimated
Fri 05:59:00 AM 43.6607 7.2176 115° Southeast  Level Estimated
Fri 06:00:00 AM 43.6607 7.2176 115° Southeast  Level Estimated
Fri 06:01:00 AM 43.6607 7.2176 115° Southeast  Level Estimated
Fri 06:02:00 AM 43.6607 7.2176 115° Southeast  Level Estimated
Fri 06:03:00 AM 43.6607 7.2176 115° Southeast  Level Estimated
Fri 06:04:00 AM 43.6607 7.2176 115° Southeast  Level Estimated
Fri 06:05:00 AM 43.6607 7.2176 115° Southeast  Level Estimated
Fri 06:06:00 AM 43.6607 7.2176 115° Southeast  Level Estimated
Fri 06:07:00 AM 43.6607 7.2176 115° Southeast  Level Estimated
Fri 06:08:00 AM 43.6607 7.2176 115° Southeast  Level Estimated
Fri 06:09:00 AM 43.6607 7.2176 115° Southeast  Level Estimated
Fri 06:10:00 AM 43.6607 7.2176 115° Southeast  Level Estimated

Login

Don't have an account? Register now (free) for customized features, flight alerts, and more!